SEH2HF LGSA-LGRP
Flight info
| Callsign | SEH2HF |
|---|---|
| Flight time | 0h 41m |
| Altitude | 23000 |
| Route | BAVES N1 IRA N136 LOKNA |
| Aircraft | A21N/M-SDE2E3FGHIRWXY/LB1 |
Departure
| Time | 2026-04-29 17:25 |
|---|---|
| Airport | Chania International Airport (LGSA) |
Arrival
| Time | 2026-04-29 18:07 |
|---|---|
| Airport | Rhodes International Airport "Diagoras" (LGRP) |
| Time | Latitude | Longitude | Altitude | Speed | Heading |
|---|---|---|---|---|---|
| 2026-04-29 16:43 | 35.53855 | 24.14107 | 503 ft | 0 kts | 22° |
| 2026-04-29 16:47 | 35.53854 | 24.14107 | 503 ft | 0 kts | 22° |
| 2026-04-29 17:06 | 35.53854 | 24.14106 | 503 ft | 1 kts | 22° |
| 2026-04-29 17:13 | 35.53847 | 24.14103 | 503 ft | 4 kts | 21° |
| 2026-04-29 17:13 | 35.53822 | 24.14093 | 503 ft | 4 kts | 13° |
| 2026-04-29 17:14 | 35.53795 | 24.14088 | 503 ft | 4 kts | 360° |
| 2026-04-29 17:14 | 35.53771 | 24.14094 | 503 ft | 4 kts | 321° |
| 2026-04-29 17:14 | 35.53763 | 24.14104 | 503 ft | 1 kts | 292° |
| 2026-04-29 17:20 | 35.53767 | 24.14091 | 503 ft | 4 kts | 292° |
| 2026-04-29 17:20 | 35.53781 | 24.14039 | 503 ft | 9 kts | 259° |
| 2026-04-29 17:20 | 35.53722 | 24.13981 | 503 ft | 13 kts | 203° |
| 2026-04-29 17:21 | 35.53709 | 24.13882 | 504 ft | 15 kts | 292° |
| 2026-04-29 17:21 | 35.53751 | 24.13756 | 504 ft | 17 kts | 292° |
| 2026-04-29 17:21 | 35.53797 | 24.13617 | 504 ft | 18 kts | 292° |
| 2026-04-29 17:21 | 35.53821 | 24.13527 | 503 ft | 8 kts | 263° |
| 2026-04-29 17:22 | 35.53794 | 24.13495 | 503 ft | 4 kts | 210° |
| 2026-04-29 17:22 | 35.53767 | 24.13476 | 503 ft | 0 kts | 210° |
| 2026-04-29 17:23 | 35.53743 | 24.13462 | 503 ft | 14 kts | 204° |
| 2026-04-29 17:23 | 35.53687 | 24.13433 | 503 ft | 5 kts | 201° |
| 2026-04-29 17:23 | 35.53662 | 24.13467 | 503 ft | 7 kts | 116° |
| 2026-04-29 17:24 | 35.53658 | 24.13478 | 504 ft | 0 kts | 110° |
| 2026-04-29 17:24 | 35.53653 | 24.13495 | 504 ft | 9 kts | 110° |
| 2026-04-29 17:24 | 35.53503 | 24.13956 | 506 ft | 108 kts | 112° |
| 2026-04-29 17:25 | 35.53116 | 24.15156 | 539 ft | 184 kts | 110° |
| 2026-04-29 17:25 | 35.52626 | 24.16691 | 1272 ft | 200 kts | 111° |
| 2026-04-29 17:25 | 35.52116 | 24.18356 | 2215 ft | 216 kts | 107° |
| 2026-04-29 17:25 | 35.51652 | 24.20114 | 3179 ft | 220 kts | 108° |
| 2026-04-29 17:26 | 35.51356 | 24.21138 | 3728 ft | 221 kts | 109° |
| 2026-04-29 17:26 | 35.50794 | 24.22903 | 4675 ft | 223 kts | 112° |
| 2026-04-29 17:26 | 35.50156 | 24.24678 | 5532 ft | 229 kts | 112° |
| 2026-04-29 17:26 | 35.49526 | 24.26471 | 6330 ft | 239 kts | 112° |
| 2026-04-29 17:27 | 35.48879 | 24.28403 | 7074 ft | 247 kts | 110° |
| 2026-04-29 17:27 | 35.48268 | 24.30389 | 7967 ft | 249 kts | 109° |
| 2026-04-29 17:27 | 35.47638 | 24.32386 | 8840 ft | 254 kts | 110° |
| 2026-04-29 17:27 | 35.46982 | 24.34412 | 9653 ft | 260 kts | 110° |
| 2026-04-29 17:28 | 35.46443 | 24.36533 | 10446 ft | 262 kts | 92° |
| 2026-04-29 17:28 | 35.46767 | 24.38700 | 11177 ft | 259 kts | 62° |
| 2026-04-29 17:28 | 35.47593 | 24.40374 | 11863 ft | 262 kts | 55° |
| 2026-04-29 17:28 | 35.47845 | 24.40857 | 12018 ft | 264 kts | 55° |
| 2026-04-29 17:29 | 35.48530 | 24.42228 | 12408 ft | 276 kts | 62° |
| 2026-04-29 17:29 | 35.48917 | 24.43760 | 12628 ft | 293 kts | 83° |
| 2026-04-29 17:30 | 35.48482 | 24.47220 | 13064 ft | 324 kts | 102° |
| 2026-04-29 17:30 | 35.48438 | 24.50050 | 13364 ft | 343 kts | 78° |
| 2026-04-29 17:30 | 35.49241 | 24.52849 | 13667 ft | 362 kts | 64° |
| 2026-04-29 17:30 | 35.50294 | 24.55748 | 14030 ft | 378 kts | 66° |
| 2026-04-29 17:31 | 35.51276 | 24.58775 | 14654 ft | 384 kts | 68° |
| 2026-04-29 17:31 | 35.52175 | 24.61885 | 15342 ft | 389 kts | 70° |
| 2026-04-29 17:31 | 35.53022 | 24.65060 | 16031 ft | 392 kts | 71° |
| 2026-04-29 17:31 | 35.53847 | 24.68282 | 16705 ft | 396 kts | 71° |
| 2026-04-29 17:32 | 35.54673 | 24.71528 | 17355 ft | 400 kts | 71° |
| 2026-04-29 17:32 | 35.55486 | 24.74768 | 18004 ft | 403 kts | 72° |
| 2026-04-29 17:32 | 35.56315 | 24.78086 | 18607 ft | 407 kts | 71° |
| 2026-04-29 17:32 | 35.57165 | 24.81426 | 19149 ft | 411 kts | 71° |
| 2026-04-29 17:33 | 35.58012 | 24.84802 | 19659 ft | 415 kts | 71° |
| 2026-04-29 17:33 | 35.58867 | 24.88207 | 20173 ft | 419 kts | 71° |
| 2026-04-29 17:33 | 35.59715 | 24.91607 | 20676 ft | 423 kts | 71° |
| 2026-04-29 17:33 | 35.60581 | 24.95082 | 21176 ft | 427 kts | 71° |
| 2026-04-29 17:34 | 35.61458 | 24.98591 | 21678 ft | 431 kts | 71° |
| 2026-04-29 17:34 | 35.62339 | 25.02145 | 22193 ft | 435 kts | 71° |
| 2026-04-29 17:34 | 35.63223 | 25.05727 | 22714 ft | 439 kts | 71° |
| 2026-04-29 17:34 | 35.64119 | 25.09348 | 23043 ft | 443 kts | 71° |
| 2026-04-29 17:35 | 35.65568 | 25.15238 | 23100 ft | 429 kts | 71° |
| 2026-04-29 17:35 | 35.66721 | 25.19909 | 23090 ft | 428 kts | 71° |
| 2026-04-29 17:35 | 35.67600 | 25.23414 | 23079 ft | 428 kts | 71° |
| 2026-04-29 17:36 | 35.68473 | 25.26924 | 23082 ft | 428 kts | 71° |
| 2026-04-29 17:36 | 35.69337 | 25.30387 | 23078 ft | 428 kts | 71° |
| 2026-04-29 17:36 | 35.70213 | 25.33892 | 23070 ft | 428 kts | 71° |
| 2026-04-29 17:36 | 35.71082 | 25.37408 | 23073 ft | 428 kts | 71° |
| 2026-04-29 17:37 | 35.71944 | 25.40920 | 23080 ft | 428 kts | 71° |
| 2026-04-29 17:37 | 35.72801 | 25.44440 | 23084 ft | 428 kts | 71° |
| 2026-04-29 17:37 | 35.73651 | 25.47901 | 23090 ft | 428 kts | 71° |
| 2026-04-29 17:37 | 35.74510 | 25.51424 | 23101 ft | 428 kts | 71° |
| 2026-04-29 17:38 | 35.75370 | 25.54951 | 23093 ft | 428 kts | 71° |
| 2026-04-29 17:38 | 35.76221 | 25.58436 | 23086 ft | 428 kts | 71° |
| 2026-04-29 17:38 | 35.77075 | 25.61954 | 23084 ft | 428 kts | 71° |
| 2026-04-29 17:38 | 35.77923 | 25.65441 | 23074 ft | 427 kts | 71° |
| 2026-04-29 17:39 | 35.78774 | 25.68944 | 23078 ft | 426 kts | 72° |
| 2026-04-29 17:39 | 35.79620 | 25.72433 | 23069 ft | 424 kts | 72° |
| 2026-04-29 17:39 | 35.80460 | 25.75921 | 23067 ft | 424 kts | 72° |
| 2026-04-29 17:39 | 35.81298 | 25.79403 | 23063 ft | 424 kts | 72° |
| 2026-04-29 17:40 | 35.82135 | 25.82900 | 23062 ft | 424 kts | 72° |
| 2026-04-29 17:40 | 35.82953 | 25.86403 | 23062 ft | 424 kts | 72° |
| 2026-04-29 17:40 | 35.83775 | 25.89893 | 23060 ft | 424 kts | 72° |
| 2026-04-29 17:40 | 35.84608 | 25.93383 | 23060 ft | 424 kts | 72° |
| 2026-04-29 17:41 | 35.85433 | 25.96827 | 23056 ft | 424 kts | 72° |
| 2026-04-29 17:41 | 35.86269 | 26.00316 | 23057 ft | 424 kts | 72° |
| 2026-04-29 17:41 | 35.87131 | 26.03863 | 23064 ft | 440 kts | 72° |
| 2026-04-29 17:41 | 35.88027 | 26.07548 | 23071 ft | 456 kts | 72° |
| 2026-04-29 17:42 | 35.88945 | 26.11362 | 23074 ft | 471 kts | 72° |
| 2026-04-29 17:42 | 35.89884 | 26.15268 | 23070 ft | 475 kts | 72° |
| 2026-04-29 17:42 | 35.90797 | 26.19196 | 23069 ft | 474 kts | 73° |
| 2026-04-29 17:42 | 35.91688 | 26.23050 | 23060 ft | 472 kts | 73° |
| 2026-04-29 17:43 | 35.92617 | 26.26959 | 23054 ft | 472 kts | 72° |
| 2026-04-29 17:43 | 35.93555 | 26.30844 | 23053 ft | 472 kts | 72° |
| 2026-04-29 17:43 | 35.94494 | 26.34731 | 23050 ft | 472 kts | 72° |
| 2026-04-29 17:43 | 35.95404 | 26.38585 | 23048 ft | 472 kts | 73° |
| 2026-04-29 17:44 | 35.96324 | 26.42491 | 23047 ft | 472 kts | 72° |
| 2026-04-29 17:44 | 35.97248 | 26.46398 | 23051 ft | 472 kts | 72° |
| 2026-04-29 17:44 | 35.98164 | 26.50299 | 23049 ft | 472 kts | 72° |
| 2026-04-29 17:44 | 35.99069 | 26.54145 | 23043 ft | 472 kts | 72° |
| 2026-04-29 17:45 | 35.99982 | 26.58039 | 23040 ft | 471 kts | 73° |
| 2026-04-29 17:45 | 36.00891 | 26.61932 | 23043 ft | 471 kts | 73° |
| 2026-04-29 17:45 | 36.01796 | 26.65828 | 23046 ft | 469 kts | 73° |
| 2026-04-29 17:45 | 36.02696 | 26.69714 | 23046 ft | 469 kts | 73° |
| 2026-04-29 17:46 | 36.03598 | 26.73588 | 23044 ft | 468 kts | 73° |
| 2026-04-29 17:46 | 36.04485 | 26.77411 | 23043 ft | 469 kts | 73° |
| 2026-04-29 17:46 | 36.05386 | 26.81289 | 23043 ft | 468 kts | 73° |
| 2026-04-29 17:46 | 36.06285 | 26.85165 | 23037 ft | 469 kts | 73° |
| 2026-04-29 17:47 | 36.07182 | 26.89044 | 23034 ft | 469 kts | 73° |
| 2026-04-29 17:47 | 36.08076 | 26.92927 | 23033 ft | 469 kts | 73° |
| 2026-04-29 17:47 | 36.08968 | 26.96809 | 23038 ft | 469 kts | 73° |
| 2026-04-29 17:47 | 36.09852 | 27.00655 | 23031 ft | 469 kts | 73° |
| 2026-04-29 17:48 | 36.10726 | 27.04494 | 22611 ft | 457 kts | 73° |
| 2026-04-29 17:48 | 36.11583 | 27.08238 | 21571 ft | 457 kts | 73° |
| 2026-04-29 17:48 | 36.12450 | 27.12013 | 20671 ft | 455 kts | 73° |
| 2026-04-29 17:48 | 36.13310 | 27.15772 | 19873 ft | 451 kts | 73° |
| 2026-04-29 17:49 | 36.14161 | 27.19496 | 19070 ft | 447 kts | 73° |
| 2026-04-29 17:49 | 36.15002 | 27.23197 | 18336 ft | 442 kts | 74° |
| 2026-04-29 17:49 | 36.15829 | 27.26856 | 17475 ft | 438 kts | 74° |
| 2026-04-29 17:49 | 36.16434 | 27.29532 | 16882 ft | 434 kts | 73° |
| 2026-04-29 17:51 | 36.16673 | 27.30595 | 16681 ft | 433 kts | 74° |
| 2026-04-29 17:51 | 36.17466 | 27.34121 | 15961 ft | 427 kts | 73° |
| 2026-04-29 17:52 | 36.18269 | 27.37653 | 15343 ft | 424 kts | 73° |
| 2026-04-29 17:52 | 36.18806 | 27.40017 | 14986 ft | 420 kts | 73° |
| 2026-04-29 17:52 | 36.19849 | 27.44632 | 14327 ft | 417 kts | 73° |
| 2026-04-29 17:52 | 36.20614 | 27.48045 | 13833 ft | 413 kts | 73° |
| 2026-04-29 17:53 | 36.21384 | 27.51456 | 13308 ft | 409 kts | 73° |
| 2026-04-29 17:53 | 36.22147 | 27.54846 | 12812 ft | 405 kts | 74° |
| 2026-04-29 17:53 | 36.22641 | 27.57055 | 12535 ft | 397 kts | 74° |
| 2026-04-29 17:53 | 36.23366 | 27.60295 | 12232 ft | 382 kts | 74° |
| 2026-04-29 17:54 | 36.24287 | 27.64417 | 11696 ft | 370 kts | 74° |
| 2026-04-29 17:54 | 36.24972 | 27.67479 | 11130 ft | 366 kts | 74° |
| 2026-04-29 17:54 | 36.25428 | 27.69518 | 10908 ft | 359 kts | 74° |
| 2026-04-29 17:54 | 36.26080 | 27.72448 | 10682 ft | 347 kts | 74° |
| 2026-04-29 17:55 | 36.26689 | 27.75254 | 10505 ft | 334 kts | 75° |
| 2026-04-29 17:55 | 36.27290 | 27.77981 | 10341 ft | 322 kts | 74° |
| 2026-04-29 17:55 | 36.27878 | 27.80618 | 10197 ft | 309 kts | 74° |
| 2026-04-29 17:55 | 36.28436 | 27.83117 | 10024 ft | 300 kts | 74° |
| 2026-04-29 17:56 | 36.28986 | 27.85602 | 9643 ft | 297 kts | 75° |
| 2026-04-29 17:56 | 36.29528 | 27.88077 | 9235 ft | 295 kts | 75° |
| 2026-04-29 17:56 | 36.30066 | 27.90533 | 8847 ft | 293 kts | 75° |
| 2026-04-29 17:56 | 36.30601 | 27.92974 | 8457 ft | 291 kts | 74° |
| 2026-04-29 17:57 | 36.31113 | 27.95363 | 8078 ft | 290 kts | 75° |
| 2026-04-29 17:57 | 36.31600 | 27.97782 | 7690 ft | 288 kts | 75° |
| 2026-04-29 17:57 | 36.32088 | 28.00183 | 7324 ft | 286 kts | 75° |
| 2026-04-29 17:57 | 36.32573 | 28.02566 | 6968 ft | 284 kts | 75° |
| 2026-04-29 17:58 | 36.33058 | 28.04938 | 6623 ft | 282 kts | 75° |
| 2026-04-29 17:58 | 36.33533 | 28.07280 | 6347 ft | 277 kts | 76° |
| 2026-04-29 17:58 | 36.33991 | 28.09585 | 6037 ft | 273 kts | 76° |
| 2026-04-29 17:58 | 36.34441 | 28.11848 | 5709 ft | 274 kts | 76° |
| 2026-04-29 17:59 | 36.34902 | 28.14143 | 5396 ft | 274 kts | 75° |
| 2026-04-29 17:59 | 36.35365 | 28.16440 | 5085 ft | 274 kts | 75° |
| 2026-04-29 17:59 | 36.35828 | 28.18739 | 4769 ft | 274 kts | 75° |
| 2026-04-29 17:59 | 36.36286 | 28.21031 | 4434 ft | 272 kts | 75° |
| 2026-04-29 18:00 | 36.36738 | 28.23310 | 4084 ft | 270 kts | 75° |
| 2026-04-29 18:00 | 36.37187 | 28.25552 | 3819 ft | 264 kts | 75° |
| 2026-04-29 18:00 | 36.37616 | 28.27725 | 3665 ft | 254 kts | 75° |
| 2026-04-29 18:00 | 36.38025 | 28.29791 | 3542 ft | 244 kts | 75° |
| 2026-04-29 18:01 | 36.38607 | 28.31709 | 3391 ft | 231 kts | 54° |
| 2026-04-29 18:01 | 36.39738 | 28.33007 | 3217 ft | 215 kts | 24° |
| 2026-04-29 18:01 | 36.41121 | 28.33425 | 2998 ft | 203 kts | 358° |
| 2026-04-29 18:01 | 36.42470 | 28.33072 | 2665 ft | 198 kts | 331° |
| 2026-04-29 18:02 | 36.43488 | 28.31969 | 2276 ft | 197 kts | 300° |
| 2026-04-29 18:02 | 36.43968 | 28.30361 | 2025 ft | 195 kts | 286° |
| 2026-04-29 18:02 | 36.44293 | 28.28821 | 2046 ft | 174 kts | 285° |
| 2026-04-29 18:02 | 36.44579 | 28.27398 | 2039 ft | 168 kts | 285° |
| 2026-04-29 18:03 | 36.44848 | 28.26061 | 2021 ft | 156 kts | 285° |
| 2026-04-29 18:03 | 36.45109 | 28.24760 | 2013 ft | 146 kts | 285° |
| 2026-04-29 18:03 | 36.45203 | 28.23543 | 1986 ft | 145 kts | 259° |
| 2026-04-29 18:03 | 36.44772 | 28.22401 | 1985 ft | 146 kts | 245° |
| 2026-04-29 18:04 | 36.44317 | 28.21273 | 1832 ft | 145 kts | 248° |
| 2026-04-29 18:04 | 36.43937 | 28.20153 | 1661 ft | 144 kts | 251° |
| 2026-04-29 18:04 | 36.43578 | 28.18995 | 1467 ft | 142 kts | 252° |
| 2026-04-29 18:04 | 36.43236 | 28.17844 | 1277 ft | 141 kts | 252° |
| 2026-04-29 18:05 | 36.42902 | 28.16707 | 1073 ft | 139 kts | 252° |
| 2026-04-29 18:05 | 36.42580 | 28.15604 | 910 ft | 140 kts | 252° |
| 2026-04-29 18:05 | 36.42253 | 28.14486 | 725 ft | 131 kts | 251° |
| 2026-04-29 18:05 | 36.41942 | 28.13424 | 565 ft | 132 kts | 251° |
| 2026-04-29 18:06 | 36.41637 | 28.12365 | 413 ft | 132 kts | 250° |
| 2026-04-29 18:06 | 36.41336 | 28.11301 | 228 ft | 131 kts | 247° |
| 2026-04-29 18:06 | 36.41015 | 28.10247 | 49 ft | 130 kts | 248° |
| 2026-04-29 18:06 | 36.40734 | 28.09286 | 36 ft | 96 kts | 248° |
| 2026-04-29 18:07 | 36.40574 | 28.08738 | 34 ft | 42 kts | 251° |
| 2026-04-29 18:07 | 36.40475 | 28.08411 | 33 ft | 43 kts | 249° |
| 2026-04-29 18:07 | 36.40362 | 28.08056 | 34 ft | 44 kts | 237° |
| 2026-04-29 18:07 | 36.40222 | 28.07896 | 33 ft | 19 kts | 216° |
| 2026-04-29 18:08 | 36.40146 | 28.07888 | 33 ft | 9 kts | 95° |
| 2026-04-29 18:08 | 36.40166 | 28.07975 | 33 ft | 12 kts | 72° |
| 2026-04-29 18:08 | 36.40195 | 28.08079 | 34 ft | 14 kts | 71° |
| 2026-04-29 18:08 | 36.40232 | 28.08198 | 34 ft | 16 kts | 67° |
| 2026-04-29 18:09 | 36.40276 | 28.08332 | 34 ft | 18 kts | 70° |
| 2026-04-29 18:09 | 36.40319 | 28.08484 | 34 ft | 19 kts | 71° |
| 2026-04-29 18:09 | 36.40358 | 28.08627 | 33 ft | 16 kts | 70° |
| 2026-04-29 18:09 | 36.40389 | 28.08734 | 33 ft | 8 kts | 70° |
| 2026-04-29 18:10 | 36.40402 | 28.08790 | 33 ft | 8 kts | 78° |
| 2026-04-29 18:10 | 36.40402 | 28.08849 | 34 ft | 6 kts | 94° |
| 2026-04-29 18:10 | 36.40398 | 28.08903 | 34 ft | 6 kts | 96° |
| 2026-04-29 18:10 | 36.40395 | 28.08968 | 34 ft | 9 kts | 88° |
| 2026-04-29 18:11 | 36.40409 | 28.09036 | 33 ft | 4 kts | 69° |
| 2026-04-29 18:11 | 36.40408 | 28.09059 | 33 ft | 2 kts | 124° |
| 2026-04-29 18:11 | 36.40391 | 28.09073 | 33 ft | 4 kts | 152° |
| 2026-04-29 18:11 | 36.40360 | 28.09087 | 33 ft | 3 kts | 159° |
| 2026-04-29 18:12 | 36.40354 | 28.09090 | 33 ft | 2 kts | 161° |
| 2026-04-29 18:12 | 36.40351 | 28.09091 | 33 ft | 0 kts | 161° |
| 2026-04-29 18:14 | 36.40352 | 28.09091 | 33 ft | 0 kts | 161° |
| 2026-04-29 18:38 | 36.40352 | 28.09090 | 33 ft | 0 kts | 161° |
| 2026-04-29 18:40 | 36.40353 | 28.09090 | 6 ft | 0 kts | 161° |